Birmingham-Shuttlesworth International Airport
KBHM : now visible

Airfield :











YOU CAN JOIN US ON...

 
LOGIN :

Register | Disclaimer

   EN    FR    IT 

 









Legend :    VFR   Marginal VFR   IFR   Intensive IFR   Very Intensive IFR
Visi :
Ceiling :
>= 8 km
>= 3000ft
5 to 8 km
1000 to 3000 ft
1500m to 5 km
500 to 1000 ft
800 to 1500m
200 to 500 ft
< 800m
< 200 ft
Symbols :   Thunderstorms  Fog  Heavy snow  Heavy precipitations  Wind > 20 kt







- Airport Elevation : 650 ft
- IATA code : BHM


KBHM - Birmingham-Shuttlesworth International

CURRENT METAR :
  • 182353Z 36005KT 10SM SCT140 BKN200 08/02 A3033 RMK AO2 SLP269 T00780017 10117 20078 53014

EXPIRED METARs :
  • 182253Z 01010KT 10SM SCT140 BKN200 10/01 A3029 RMK AO2 SLP257 T01000006
  • 182153Z 35011KT 10SM BKN140 BKN200 11/02 A3028 RMK AO2 SLP252 T01110017

TAF KBHM
Valid from the 19 at 00:00 until the 20 at 00:00 UTC


182340Z 1900/1924 01008KT P6SM SCT150 OVC250
FM190300 03007KT P6SM -RA OVC100
FM190700 03007KT P6SM OVC050
PROB30 1915/1919 05011KT 6SM -RA OVC050
FM191900 07014G20KT P6SM VCSH OVC025
FM192100 07011G19KT 5SM -RA OVC015
KZTL FIR / North America



MET'MAP, your aeronautical weather chart ! - Copyright ORBIFLY December 2007 - Disclaimer

ORBIFLY MET'MAP TEAM :

Programming & Development : Alexandra Zaïnal
Concept & Development : Baudouin d'Aumeries
Co-Development & Prog : Marc-Olivier Méhu
Technical & hardware support : Manuel Goepfert

Contact : metmap@orbifly.com




SOURCES & CREDITS :

   NOAA       Earth
Advisory